sensor_id;sensor_type;location;lat;lon;timestamp;temperature;humidity
5192;DHT22;2615;44.524;11.284;2023-12-07T00:00:41;5.00;55.40
5192;DHT22;2615;44.524;11.284;2023-12-07T00:03:10;5.00;55.40
5192;DHT22;2615;44.524;11.284;2023-12-07T00:05:38;5.00;55.40
5192;DHT22;2615;44.524;11.284;2023-12-07T00:08:09;5.00;55.40
5192;DHT22;2615;44.524;11.284;2023-12-07T00:10:37;5.00;55.50
5192;DHT22;2615;44.524;11.284;2023-12-07T00:13:07;5.00;55.50
5192;DHT22;2615;44.524;11.284;2023-12-07T00:15:35;5.00;55.50
5192;DHT22;2615;44.524;11.284;2023-12-07T00:18:03;5.00;55.50
5192;DHT22;2615;44.524;11.284;2023-12-07T00:20:32;5.00;55.60
5192;DHT22;2615;44.524;11.284;2023-12-07T00:23:00;5.00;55.60
5192;DHT22;2615;44.524;11.284;2023-12-07T00:25:28;4.90;55.50
5192;DHT22;2615;44.524;11.284;2023-12-07T00:27:56;4.90;55.50
5192;DHT22;2615;44.524;11.284;2023-12-07T00:30:26;4.90;55.50
5192;DHT22;2615;44.524;11.284;2023-12-07T00:32:54;4.90;55.60
5192;DHT22;2615;44.524;11.284;2023-12-07T00:35:22;4.90;55.60
5192;DHT22;2615;44.524;11.284;2023-12-07T00:37:50;4.90;55.60
5192;DHT22;2615;44.524;11.284;2023-12-07T00:40:18;4.90;55.60
5192;DHT22;2615;44.524;11.284;2023-12-07T00:42:46;4.90;55.60
5192;DHT22;2615;44.524;11.284;2023-12-07T00:45:15;4.90;55.70
5192;DHT22;2615;44.524;11.284;2023-12-07T00:47:44;4.80;55.60
5192;DHT22;2615;44.524;11.284;2023-12-07T00:50:13;4.90;55.70
5192;DHT22;2615;44.524;11.284;2023-12-07T00:52:42;4.90;55.80
5192;DHT22;2615;44.524;11.284;2023-12-07T00:55:10;4.90;55.80
5192;DHT22;2615;44.524;11.284;2023-12-07T00:57:38;4.90;55.70
5192;DHT22;2615;44.524;11.284;2023-12-07T01:00:07;4.90;55.80
5192;DHT22;2615;44.524;11.284;2023-12-07T01:02:37;4.90;55.80
5192;DHT22;2615;44.524;11.284;2023-12-07T01:05:07;4.90;55.90
5192;DHT22;2615;44.524;11.284;2023-12-07T01:07:35;4.90;55.80
5192;DHT22;2615;44.524;11.284;2023-12-07T01:10:05;4.90;55.80
5192;DHT22;2615;44.524;11.284;2023-12-07T01:12:33;4.90;55.80
5192;DHT22;2615;44.524;11.284;2023-12-07T01:15:03;4.80;55.80
5192;DHT22;2615;44.524;11.284;2023-12-07T01:17:31;4.90;55.80
5192;DHT22;2615;44.524;11.284;2023-12-07T01:19:59;4.90;55.90
5192;DHT22;2615;44.524;11.284;2023-12-07T01:22:29;4.90;55.90
5192;DHT22;2615;44.524;11.284;2023-12-07T01:24:57;4.80;55.80
5192;DHT22;2615;44.524;11.284;2023-12-07T01:27:25;4.90;55.90
5192;DHT22;2615;44.524;11.284;2023-12-07T01:29:54;4.90;56.00
5192;DHT22;2615;44.524;11.284;2023-12-07T01:32:22;4.80;55.90
5192;DHT22;2615;44.524;11.284;2023-12-07T01:34:51;4.90;56.00
5192;DHT22;2615;44.524;11.284;2023-12-07T01:37:19;4.80;55.90
5192;DHT22;2615;44.524;11.284;2023-12-07T01:39:48;4.80;55.90
5192;DHT22;2615;44.524;11.284;2023-12-07T01:42:16;4.90;56.00
5192;DHT22;2615;44.524;11.284;2023-12-07T01:44:44;4.80;55.90
5192;DHT22;2615;44.524;11.284;2023-12-07T01:47:13;4.80;55.90
5192;DHT22;2615;44.524;11.284;2023-12-07T01:49:42;4.80;56.00
5192;DHT22;2615;44.524;11.284;2023-12-07T01:52:10;4.80;56.00
5192;DHT22;2615;44.524;11.284;2023-12-07T01:54:39;4.80;56.00
5192;DHT22;2615;44.524;11.284;2023-12-07T01:57:09;4.80;56.00
5192;DHT22;2615;44.524;11.284;2023-12-07T01:59:37;4.80;56.00
5192;DHT22;2615;44.524;11.284;2023-12-07T02:02:05;4.80;56.00
5192;DHT22;2615;44.524;11.284;2023-12-07T02:04:34;4.80;56.10
5192;DHT22;2615;44.524;11.284;2023-12-07T02:07:03;4.80;56.10
5192;DHT22;2615;44.524;11.284;2023-12-07T02:09:32;4.80;56.10
5192;DHT22;2615;44.524;11.284;2023-12-07T02:12:00;4.80;56.10
5192;DHT22;2615;44.524;11.284;2023-12-07T02:14:30;4.70;56.00
5192;DHT22;2615;44.524;11.284;2023-12-07T02:17:04;4.70;56.00
5192;DHT22;2615;44.524;11.284;2023-12-07T02:19:49;4.70;56.10
5192;DHT22;2615;44.524;11.284;2023-12-07T02:22:24;4.70;56.10
5192;DHT22;2615;44.524;11.284;2023-12-07T02:25:06;4.70;56.10
5192;DHT22;2615;44.524;11.284;2023-12-07T02:27:38;4.70;56.10
5192;DHT22;2615;44.524;11.284;2023-12-07T02:30:07;4.70;56.10
5192;DHT22;2615;44.524;11.284;2023-12-07T02:32:36;4.70;56.10
5192;DHT22;2615;44.524;11.284;2023-12-07T02:35:06;4.70;56.10
5192;DHT22;2615;44.524;11.284;2023-12-07T02:37:40;4.70;56.20
5192;DHT22;2615;44.524;11.284;2023-12-07T02:40:11;4.70;56.10
5192;DHT22;2615;44.524;11.284;2023-12-07T02:42:43;4.60;56.10
5192;DHT22;2615;44.524;11.284;2023-12-07T02:45:11;4.60;56.20
5192;DHT22;2615;44.524;11.284;2023-12-07T02:47:40;4.70;56.20
5192;DHT22;2615;44.524;11.284;2023-12-07T02:50:10;4.60;56.20
5192;DHT22;2615;44.524;11.284;2023-12-07T02:52:39;4.60;56.20
5192;DHT22;2615;44.524;11.284;2023-12-07T02:55:07;4.60;56.20
5192;DHT22;2615;44.524;11.284;2023-12-07T02:57:36;4.60;56.20
5192;DHT22;2615;44.524;11.284;2023-12-07T03:00:07;4.60;56.20
5192;DHT22;2615;44.524;11.284;2023-12-07T03:02:36;4.60;56.20
5192;DHT22;2615;44.524;11.284;2023-12-07T03:05:05;4.60;56.20
5192;DHT22;2615;44.524;11.284;2023-12-07T03:07:34;4.60;56.30
5192;DHT22;2615;44.524;11.284;2023-12-07T03:10:03;4.60;56.30
5192;DHT22;2615;44.524;11.284;2023-12-07T03:12:31;4.50;56.20
5192;DHT22;2615;44.524;11.284;2023-12-07T03:14:59;4.60;56.30
5192;DHT22;2615;44.524;11.284;2023-12-07T03:17:29;4.60;56.30
5192;DHT22;2615;44.524;11.284;2023-12-07T03:19:57;4.60;56.30
5192;DHT22;2615;44.524;11.284;2023-12-07T03:22:25;4.60;56.40
5192;DHT22;2615;44.524;11.284;2023-12-07T03:24:53;4.60;56.40
5192;DHT22;2615;44.524;11.284;2023-12-07T03:27:21;4.60;56.30
5192;DHT22;2615;44.524;11.284;2023-12-07T03:29:49;4.60;56.40
5192;DHT22;2615;44.524;11.284;2023-12-07T03:32:18;4.60;56.40
5192;DHT22;2615;44.524;11.284;2023-12-07T03:34:47;4.60;56.30
5192;DHT22;2615;44.524;11.284;2023-12-07T03:37:16;4.60;56.30
5192;DHT22;2615;44.524;11.284;2023-12-07T03:39:44;4.60;56.40
5192;DHT22;2615;44.524;11.284;2023-12-07T03:42:12;4.50;56.30
5192;DHT22;2615;44.524;11.284;2023-12-07T03:45:00;4.50;56.30
5192;DHT22;2615;44.524;11.284;2023-12-07T03:47:28;4.50;56.30
5192;DHT22;2615;44.524;11.284;2023-12-07T03:49:58;4.50;56.30
5192;DHT22;2615;44.524;11.284;2023-12-07T03:52:26;4.50;56.40
5192;DHT22;2615;44.524;11.284;2023-12-07T03:54:55;4.50;56.40
5192;DHT22;2615;44.524;11.284;2023-12-07T03:57:23;4.50;56.40
5192;DHT22;2615;44.524;11.284;2023-12-07T03:59:51;4.50;56.40
5192;DHT22;2615;44.524;11.284;2023-12-07T04:02:20;4.50;56.50
5192;DHT22;2615;44.524;11.284;2023-12-07T04:04:49;4.50;57.00
5192;DHT22;2615;44.524;11.284;2023-12-07T04:07:19;4.40;56.40
5192;DHT22;2615;44.524;11.284;2023-12-07T04:09:47;4.40;56.40
5192;DHT22;2615;44.524;11.284;2023-12-07T04:12:15;4.40;56.50
5192;DHT22;2615;44.524;11.284;2023-12-07T04:14:43;4.40;56.50
5192;DHT22;2615;44.524;11.284;2023-12-07T04:17:11;4.40;56.50
5192;DHT22;2615;44.524;11.284;2023-12-07T04:19:39;4.40;56.50
5192;DHT22;2615;44.524;11.284;2023-12-07T04:22:07;4.40;56.50
5192;DHT22;2615;44.524;11.284;2023-12-07T04:24:37;4.40;56.50
5192;DHT22;2615;44.524;11.284;2023-12-07T04:27:05;4.40;56.50
5192;DHT22;2615;44.524;11.284;2023-12-07T04:29:33;4.40;56.60
5192;DHT22;2615;44.524;11.284;2023-12-07T04:32:03;4.30;56.50
5192;DHT22;2615;44.524;11.284;2023-12-07T04:34:31;4.30;56.50
5192;DHT22;2615;44.524;11.284;2023-12-07T04:36:59;4.30;56.60
5192;DHT22;2615;44.524;11.284;2023-12-07T04:39:27;4.30;56.60
5192;DHT22;2615;44.524;11.284;2023-12-07T04:41:57;4.30;56.60
5192;DHT22;2615;44.524;11.284;2023-12-07T04:44:25;4.30;56.60
5192;DHT22;2615;44.524;11.284;2023-12-07T04:46:54;4.30;56.60
5192;DHT22;2615;44.524;11.284;2023-12-07T04:49:22;4.30;56.60
5192;DHT22;2615;44.524;11.284;2023-12-07T04:51:50;4.30;56.60
5192;DHT22;2615;44.524;11.284;2023-12-07T04:54:18;4.30;56.70
5192;DHT22;2615;44.524;11.284;2023-12-07T04:56:46;4.30;56.70
5192;DHT22;2615;44.524;11.284;2023-12-07T04:59:17;4.30;56.70
5192;DHT22;2615;44.524;11.284;2023-12-07T05:01:47;4.30;56.70
5192;DHT22;2615;44.524;11.284;2023-12-07T05:04:15;4.30;56.70
5192;DHT22;2615;44.524;11.284;2023-12-07T05:06:43;4.30;57.20
5192;DHT22;2615;44.524;11.284;2023-12-07T05:09:11;4.30;56.70
5192;DHT22;2615;44.524;11.284;2023-12-07T05:11:39;4.30;56.70
5192;DHT22;2615;44.524;11.284;2023-12-07T05:14:07;4.30;56.70
5192;DHT22;2615;44.524;11.284;2023-12-07T05:16:37;4.20;56.70
5192;DHT22;2615;44.524;11.284;2023-12-07T05:19:05;4.20;56.70
5192;DHT22;2615;44.524;11.284;2023-12-07T05:21:34;4.20;56.70
5192;DHT22;2615;44.524;11.284;2023-12-07T05:24:02;4.20;56.70
5192;DHT22;2615;44.524;11.284;2023-12-07T05:26:30;4.20;56.70
5192;DHT22;2615;44.524;11.284;2023-12-07T05:28:59;4.20;56.70
5192;DHT22;2615;44.524;11.284;2023-12-07T05:31:27;4.20;56.70
5192;DHT22;2615;44.524;11.284;2023-12-07T05:33:57;4.20;56.70
5192;DHT22;2615;44.524;11.284;2023-12-07T05:36:25;4.20;56.80
5192;DHT22;2615;44.524;11.284;2023-12-07T05:38:54;4.10;57.20
5192;DHT22;2615;44.524;11.284;2023-12-07T05:41:22;4.10;56.70
5192;DHT22;2615;44.524;11.284;2023-12-07T05:43:50;4.10;56.70
5192;DHT22;2615;44.524;11.284;2023-12-07T05:46:19;4.10;56.80
5192;DHT22;2615;44.524;11.284;2023-12-07T05:48:47;4.10;56.80
5192;DHT22;2615;44.524;11.284;2023-12-07T05:51:19;4.10;56.80
5192;DHT22;2615;44.524;11.284;2023-12-07T05:53:47;4.20;56.80
5192;DHT22;2615;44.524;11.284;2023-12-07T05:56:18;4.10;56.80
5192;DHT22;2615;44.524;11.284;2023-12-07T05:58:47;4.10;56.80
5192;DHT22;2615;44.524;11.284;2023-12-07T06:01:17;4.10;56.80
5192;DHT22;2615;44.524;11.284;2023-12-07T06:03:46;4.10;56.80
5192;DHT22;2615;44.524;11.284;2023-12-07T06:06:14;4.10;56.80
5192;DHT22;2615;44.524;11.284;2023-12-07T06:08:43;4.10;56.80
5192;DHT22;2615;44.524;11.284;2023-12-07T06:11:12;4.10;56.80
5192;DHT22;2615;44.524;11.284;2023-12-07T06:13:40;4.20;56.90
5192;DHT22;2615;44.524;11.284;2023-12-07T06:16:11;4.10;56.80
5192;DHT22;2615;44.524;11.284;2023-12-07T06:18:41;4.10;56.80
5192;DHT22;2615;44.524;11.284;2023-12-07T06:21:09;4.10;56.80
5192;DHT22;2615;44.524;11.284;2023-12-07T06:23:38;4.10;56.80
5192;DHT22;2615;44.524;11.284;2023-12-07T06:26:07;4.10;56.80
5192;DHT22;2615;44.524;11.284;2023-12-07T06:28:35;4.10;56.90
5192;DHT22;2615;44.524;11.284;2023-12-07T06:31:07;4.10;56.90
5192;DHT22;2615;44.524;11.284;2023-12-07T06:33:35;4.10;56.90
5192;DHT22;2615;44.524;11.284;2023-12-07T06:36:04;4.10;56.80
5192;DHT22;2615;44.524;11.284;2023-12-07T06:38:32;4.10;56.90
5192;DHT22;2615;44.524;11.284;2023-12-07T06:41:01;4.10;56.90
5192;DHT22;2615;44.524;11.284;2023-12-07T06:43:30;4.10;56.90
5192;DHT22;2615;44.524;11.284;2023-12-07T06:45:58;4.10;56.90
5192;DHT22;2615;44.524;11.284;2023-12-07T06:48:27;4.10;56.90
5192;DHT22;2615;44.524;11.284;2023-12-07T06:50:55;4.10;56.90
5192;DHT22;2615;44.524;11.284;2023-12-07T06:53:23;4.10;56.90
5192;DHT22;2615;44.524;11.284;2023-12-07T06:55:51;4.10;56.90
5192;DHT22;2615;44.524;11.284;2023-12-07T06:58:20;4.20;57.00
5192;DHT22;2615;44.524;11.284;2023-12-07T07:00:50;4.10;56.90
5192;DHT22;2615;44.524;11.284;2023-12-07T07:03:18;4.10;56.90
5192;DHT22;2615;44.524;11.284;2023-12-07T07:05:46;4.20;57.00
5192;DHT22;2615;44.524;11.284;2023-12-07T07:08:14;4.20;56.90
5192;DHT22;2615;44.524;11.284;2023-12-07T07:10:43;4.10;56.90
5192;DHT22;2615;44.524;11.284;2023-12-07T07:13:12;4.10;56.90
5192;DHT22;2615;44.524;11.284;2023-12-07T07:15:42;4.20;56.90
5192;DHT22;2615;44.524;11.284;2023-12-07T07:18:12;4.20;56.90
5192;DHT22;2615;44.524;11.284;2023-12-07T07:20:40;4.20;57.00
5192;DHT22;2615;44.524;11.284;2023-12-07T07:23:08;4.20;57.00
5192;DHT22;2615;44.524;11.284;2023-12-07T07:25:37;4.30;57.00
5192;DHT22;2615;44.524;11.284;2023-12-07T07:28:05;4.30;57.00
5192;DHT22;2615;44.524;11.284;2023-12-07T07:30:34;4.40;57.00
5192;DHT22;2615;44.524;11.284;2023-12-07T07:33:02;4.40;57.00
5192;DHT22;2615;44.524;11.284;2023-12-07T07:35:32;4.40;57.00
5192;DHT22;2615;44.524;11.284;2023-12-07T07:38:01;4.50;57.00
5192;DHT22;2615;44.524;11.284;2023-12-07T07:40:29;4.50;57.00
5192;DHT22;2615;44.524;11.284;2023-12-07T07:42:57;4.60;57.10
5192;DHT22;2615;44.524;11.284;2023-12-07T07:45:25;4.60;57.00
5192;DHT22;2615;44.524;11.284;2023-12-07T07:47:54;4.60;57.00
5192;DHT22;2615;44.524;11.284;2023-12-07T07:50:22;4.70;57.10
5192;DHT22;2615;44.524;11.284;2023-12-07T07:52:51;4.70;57.00
5192;DHT22;2615;44.524;11.284;2023-12-07T07:55:19;4.80;57.00
5192;DHT22;2615;44.524;11.284;2023-12-07T07:57:48;4.90;57.10
5192;DHT22;2615;44.524;11.284;2023-12-07T08:00:17;5.00;57.10
5192;DHT22;2615;44.524;11.284;2023-12-07T08:02:46;5.00;57.10
5192;DHT22;2615;44.524;11.284;2023-12-07T08:05:14;5.10;57.10
5192;DHT22;2615;44.524;11.284;2023-12-07T08:07:42;5.20;57.10
5192;DHT22;2615;44.524;11.284;2023-12-07T08:10:12;5.30;57.10
5192;DHT22;2615;44.524;11.284;2023-12-07T08:12:41;5.40;57.60
5192;DHT22;2615;44.524;11.284;2023-12-07T08:15:10;5.50;57.10
5192;DHT22;2615;44.524;11.284;2023-12-07T08:17:39;5.60;57.10
5192;DHT22;2615;44.524;11.284;2023-12-07T08:20:08;5.70;57.10
5192;DHT22;2615;44.524;11.284;2023-12-07T08:22:37;5.80;57.10
5192;DHT22;2615;44.524;11.284;2023-12-07T08:25:07;5.90;57.10
5192;DHT22;2615;44.524;11.284;2023-12-07T08:27:39;6.00;57.00
5192;DHT22;2615;44.524;11.284;2023-12-07T08:30:08;6.10;56.90
5192;DHT22;2615;44.524;11.284;2023-12-07T08:32:37;6.20;57.00
5192;DHT22;2615;44.524;11.284;2023-12-07T08:35:06;6.30;57.00
5192;DHT22;2615;44.524;11.284;2023-12-07T08:37:37;6.40;56.90
5192;DHT22;2615;44.524;11.284;2023-12-07T08:40:06;6.50;56.90
5192;DHT22;2615;44.524;11.284;2023-12-07T08:42:39;6.60;56.80
5192;DHT22;2615;44.524;11.284;2023-12-07T08:45:08;6.70;56.80
5192;DHT22;2615;44.524;11.284;2023-12-07T08:47:36;6.80;56.70
5192;DHT22;2615;44.524;11.284;2023-12-07T08:50:05;6.90;56.70
5192;DHT22;2615;44.524;11.284;2023-12-07T08:52:34;7.00;56.70
5192;DHT22;2615;44.524;11.284;2023-12-07T08:55:13;7.10;56.60
5192;DHT22;2615;44.524;11.284;2023-12-07T08:57:45;7.20;56.50
5192;DHT22;2615;44.524;11.284;2023-12-07T09:00:15;7.30;56.50
5192;DHT22;2615;44.524;11.284;2023-12-07T09:02:44;7.40;56.50
5192;DHT22;2615;44.524;11.284;2023-12-07T09:05:14;7.50;56.40
5192;DHT22;2615;44.524;11.284;2023-12-07T09:07:43;7.60;56.40
5192;DHT22;2615;44.524;11.284;2023-12-07T09:10:11;7.70;56.40
5192;DHT22;2615;44.524;11.284;2023-12-07T09:12:39;7.80;56.40
5192;DHT22;2615;44.524;11.284;2023-12-07T09:15:10;7.90;56.40
5192;DHT22;2615;44.524;11.284;2023-12-07T09:17:39;8.20;56.50
5192;DHT22;2615;44.524;11.284;2023-12-07T09:20:08;8.40;56.40
5192;DHT22;2615;44.524;11.284;2023-12-07T09:22:42;8.60;56.20
5192;DHT22;2615;44.524;11.284;2023-12-07T09:25:10;8.80;56.00
5192;DHT22;2615;44.524;11.284;2023-12-07T09:27:39;9.00;55.90
5192;DHT22;2615;44.524;11.284;2023-12-07T09:30:10;9.20;55.70
5192;DHT22;2615;44.524;11.284;2023-12-07T09:32:40;9.30;55.70
5192;DHT22;2615;44.524;11.284;2023-12-07T09:35:12;9.50;55.60
5192;DHT22;2615;44.524;11.284;2023-12-07T09:37:43;9.50;55.50
5192;DHT22;2615;44.524;11.284;2023-12-07T09:40:15;9.50;55.30
5192;DHT22;2615;44.524;11.284;2023-12-07T09:42:46;9.50;55.80
5192;DHT22;2615;44.524;11.284;2023-12-07T09:45:17;9.50;55.10
5192;DHT22;2615;44.524;11.284;2023-12-07T09:47:48;9.40;54.90
5192;DHT22;2615;44.524;11.284;2023-12-07T09:50:18;9.40;54.90
5192;DHT22;2615;44.524;11.284;2023-12-07T09:52:48;9.40;54.80
5192;DHT22;2615;44.524;11.284;2023-12-07T09:55:30;9.40;54.80
5192;DHT22;2615;44.524;11.284;2023-12-07T09:58:00;9.40;54.80
5192;DHT22;2615;44.524;11.284;2023-12-07T10:00:33;9.50;54.80
5192;DHT22;2615;44.524;11.284;2023-12-07T10:03:02;9.50;54.70
5192;DHT22;2615;44.524;11.284;2023-12-07T10:05:30;9.60;54.70
5192;DHT22;2615;44.524;11.284;2023-12-07T10:07:59;9.70;54.70
5192;DHT22;2615;44.524;11.284;2023-12-07T10:10:27;9.80;54.70
5192;DHT22;2615;44.524;11.284;2023-12-07T10:12:56;10.00;53.80
5192;DHT22;2615;44.524;11.284;2023-12-07T10:15:26;10.30;53.90
5192;DHT22;2615;44.524;11.284;2023-12-07T10:17:57;10.60;53.70
5192;DHT22;2615;44.524;11.284;2023-12-07T10:20:28;10.80;53.50
5192;DHT22;2615;44.524;11.284;2023-12-07T10:23:03;11.10;53.50
5192;DHT22;2615;44.524;11.284;2023-12-07T10:25:37;11.60;53.80
5192;DHT22;2615;44.524;11.284;2023-12-07T10:28:05;12.00;54.00
5192;DHT22;2615;44.524;11.284;2023-12-07T10:30:36;12.40;53.80
5192;DHT22;2615;44.524;11.284;2023-12-07T10:33:08;12.70;53.30
5192;DHT22;2615;44.524;11.284;2023-12-07T10:35:38;12.90;53.10
5192;DHT22;2615;44.524;11.284;2023-12-07T10:38:08;13.20;53.00
5192;DHT22;2615;44.524;11.284;2023-12-07T10:40:36;13.30;52.70
5192;DHT22;2615;44.524;11.284;2023-12-07T10:43:06;13.40;52.60
5192;DHT22;2615;44.524;11.284;2023-12-07T10:45:35;13.50;52.50
5192;DHT22;2615;44.524;11.284;2023-12-07T10:48:06;13.50;52.20
5192;DHT22;2615;44.524;11.284;2023-12-07T10:50:37;13.50;51.80
5192;DHT22;2615;44.524;11.284;2023-12-07T10:53:11;13.40;51.60
5192;DHT22;2615;44.524;11.284;2023-12-07T10:55:46;13.30;51.50
5192;DHT22;2615;44.524;11.284;2023-12-07T10:58:17;13.40;51.50
5192;DHT22;2615;44.524;11.284;2023-12-07T11:00:45;13.50;51.70
5192;DHT22;2615;44.524;11.284;2023-12-07T11:03:16;13.70;51.80
5192;DHT22;2615;44.524;11.284;2023-12-07T11:05:47;13.70;51.50
5192;DHT22;2615;44.524;11.284;2023-12-07T11:08:21;13.80;51.40
5192;DHT22;2615;44.524;11.284;2023-12-07T11:10:58;13.80;51.10
5192;DHT22;2615;44.524;11.284;2023-12-07T11:13:30;13.70;50.90
5192;DHT22;2615;44.524;11.284;2023-12-07T11:15:59;13.60;50.70
5192;DHT22;2615;44.524;11.284;2023-12-07T11:18:28;13.40;50.60
5192;DHT22;2615;44.524;11.284;2023-12-07T11:20:59;13.20;50.50
5192;DHT22;2615;44.524;11.284;2023-12-07T11:23:29;13.00;50.40
5192;DHT22;2615;44.524;11.284;2023-12-07T11:25:58;12.80;50.30
5192;DHT22;2615;44.524;11.284;2023-12-07T11:28:44;12.70;50.30
5192;DHT22;2615;44.524;11.284;2023-12-07T11:31:12;12.50;50.20
5192;DHT22;2615;44.524;11.284;2023-12-07T11:33:41;12.40;50.40
5192;DHT22;2615;44.524;11.284;2023-12-07T11:36:11;12.40;50.50
5192;DHT22;2615;44.524;11.284;2023-12-07T11:41:51;12.40;50.50
5192;DHT22;2615;44.524;11.284;2023-12-07T11:44:25;12.40;50.70
5192;DHT22;2615;44.524;11.284;2023-12-07T11:47:00;12.50;50.70
5192;DHT22;2615;44.524;11.284;2023-12-07T11:49:29;12.60;50.90
5192;DHT22;2615;44.524;11.284;2023-12-07T11:52:15;12.90;51.20
5192;DHT22;2615;44.524;11.284;2023-12-07T11:54:44;13.30;51.50
5192;DHT22;2615;44.524;11.284;2023-12-07T11:57:13;13.60;51.40
5192;DHT22;2615;44.524;11.284;2023-12-07T11:59:43;14.10;51.50
5192;DHT22;2615;44.524;11.284;2023-12-07T12:02:12;14.70;51.60
5192;DHT22;2615;44.524;11.284;2023-12-07T12:04:41;15.60;51.90
5192;DHT22;2615;44.524;11.284;2023-12-07T12:07:09;16.70;51.90
5192;DHT22;2615;44.524;11.284;2023-12-07T12:09:39;17.80;51.80
5192;DHT22;2615;44.524;11.284;2023-12-07T12:12:07;18.90;51.70
5192;DHT22;2615;44.524;11.284;2023-12-07T12:14:35;20.10;51.20
5192;DHT22;2615;44.524;11.284;2023-12-07T12:17:04;21.30;50.70
5192;DHT22;2615;44.524;11.284;2023-12-07T12:19:33;22.20;49.70
5192;DHT22;2615;44.524;11.284;2023-12-07T12:22:03;23.10;48.90
5192;DHT22;2615;44.524;11.284;2023-12-07T12:24:35;23.80;48.00
5192;DHT22;2615;44.524;11.284;2023-12-07T12:27:05;24.50;47.30
5192;DHT22;2615;44.524;11.284;2023-12-07T12:29:33;25.10;46.50
5192;DHT22;2615;44.524;11.284;2023-12-07T12:32:03;25.60;45.80
5192;DHT22;2615;44.524;11.284;2023-12-07T12:34:32;26.10;45.10
5192;DHT22;2615;44.524;11.284;2023-12-07T12:37:02;26.50;44.20
5192;DHT22;2615;44.524;11.284;2023-12-07T12:39:32;26.80;43.40
5192;DHT22;2615;44.524;11.284;2023-12-07T12:42:04;26.90;42.50
5192;DHT22;2615;44.524;11.284;2023-12-07T12:44:32;26.80;41.80
5192;DHT22;2615;44.524;11.284;2023-12-07T12:47:05;26.50;41.40
5192;DHT22;2615;44.524;11.284;2023-12-07T12:49:35;25.90;41.10
5192;DHT22;2615;44.524;11.284;2023-12-07T12:52:05;25.00;41.00
5192;DHT22;2615;44.524;11.284;2023-12-07T12:54:37;24.00;40.90
5192;DHT22;2615;44.524;11.284;2023-12-07T12:57:07;23.40;41.10
5192;DHT22;2615;44.524;11.284;2023-12-07T12:59:36;23.40;41.40
5192;DHT22;2615;44.524;11.284;2023-12-07T13:02:04;23.50;41.50
5192;DHT22;2615;44.524;11.284;2023-12-07T13:04:33;23.50;41.20
5192;DHT22;2615;44.524;11.284;2023-12-07T13:07:08;23.20;40.90
5192;DHT22;2615;44.524;11.284;2023-12-07T13:09:36;22.70;40.70
5192;DHT22;2615;44.524;11.284;2023-12-07T13:12:06;22.00;40.40
5192;DHT22;2615;44.524;11.284;2023-12-07T13:14:35;21.20;40.40
5192;DHT22;2615;44.524;11.284;2023-12-07T13:17:06;20.40;40.40
5192;DHT22;2615;44.524;11.284;2023-12-07T13:19:35;19.70;40.50
5192;DHT22;2615;44.524;11.284;2023-12-07T13:22:04;19.00;40.70
5192;DHT22;2615;44.524;11.284;2023-12-07T13:24:33;18.30;40.80
5192;DHT22;2615;44.524;11.284;2023-12-07T13:27:02;17.70;40.90
5192;DHT22;2615;44.524;11.284;2023-12-07T13:29:31;17.40;41.30
5192;DHT22;2615;44.524;11.284;2023-12-07T13:32:03;17.10;41.50
5192;DHT22;2615;44.524;11.284;2023-12-07T13:34:32;16.70;41.50
5192;DHT22;2615;44.524;11.284;2023-12-07T13:37:00;16.40;41.60
5192;DHT22;2615;44.524;11.284;2023-12-07T13:39:29;16.10;41.70
5192;DHT22;2615;44.524;11.284;2023-12-07T13:41:58;15.70;41.80
5192;DHT22;2615;44.524;11.284;2023-12-07T13:44:32;15.30;42.00
5192;DHT22;2615;44.524;11.284;2023-12-07T13:47:00;15.00;42.20
5192;DHT22;2615;44.524;11.284;2023-12-07T13:49:28;14.80;42.40
5192;DHT22;2615;44.524;11.284;2023-12-07T13:52:00;14.60;42.60
5192;DHT22;2615;44.524;11.284;2023-12-07T13:54:34;14.30;42.70
5192;DHT22;2615;44.524;11.284;2023-12-07T13:57:19;14.10;42.80
5192;DHT22;2615;44.524;11.284;2023-12-07T13:59:49;13.90;42.90
5192;DHT22;2615;44.524;11.284;2023-12-07T14:02:18;13.70;43.10
5192;DHT22;2615;44.524;11.284;2023-12-07T14:04:46;13.50;43.20
5192;DHT22;2615;44.524;11.284;2023-12-07T14:07:18;13.30;43.30
5192;DHT22;2615;44.524;11.284;2023-12-07T14:09:49;13.10;43.40
5192;DHT22;2615;44.524;11.284;2023-12-07T14:12:25;12.90;43.50
5192;DHT22;2615;44.524;11.284;2023-12-07T14:14:57;12.80;43.70
5192;DHT22;2615;44.524;11.284;2023-12-07T14:17:25;12.80;43.90
5192;DHT22;2615;44.524;11.284;2023-12-07T14:20:04;12.70;44.00
5192;DHT22;2615;44.524;11.284;2023-12-07T14:22:53;12.60;44.10
5192;DHT22;2615;44.524;11.284;2023-12-07T14:25:22;12.50;44.20
5192;DHT22;2615;44.524;11.284;2023-12-07T14:27:50;12.40;44.30
5192;DHT22;2615;44.524;11.284;2023-12-07T14:30:20;12.30;44.30
5192;DHT22;2615;44.524;11.284;2023-12-07T14:32:49;12.20;44.40
5192;DHT22;2615;44.524;11.284;2023-12-07T14:35:20;12.10;44.50
5192;DHT22;2615;44.524;11.284;2023-12-07T14:37:49;12.00;44.70
5192;DHT22;2615;44.524;11.284;2023-12-07T14:40:18;12.00;44.80
5192;DHT22;2615;44.524;11.284;2023-12-07T14:42:46;11.90;44.80
5192;DHT22;2615;44.524;11.284;2023-12-07T14:45:14;11.90;44.90
5192;DHT22;2615;44.524;11.284;2023-12-07T14:47:44;11.80;44.90
5192;DHT22;2615;44.524;11.284;2023-12-07T14:50:13;11.70;44.90
5192;DHT22;2615;44.524;11.284;2023-12-07T14:52:41;11.60;45.00
5192;DHT22;2615;44.524;11.284;2023-12-07T14:55:10;11.50;45.10
5192;DHT22;2615;44.524;11.284;2023-12-07T14:57:38;11.30;45.20
5192;DHT22;2615;44.524;11.284;2023-12-07T15:00:07;11.30;45.30
5192;DHT22;2615;44.524;11.284;2023-12-07T15:02:35;11.10;45.30
5192;DHT22;2615;44.524;11.284;2023-12-07T15:05:06;11.00;45.40
5192;DHT22;2615;44.524;11.284;2023-12-07T15:07:35;10.90;45.50
5192;DHT22;2615;44.524;11.284;2023-12-07T15:10:04;10.80;45.60
5192;DHT22;2615;44.524;11.284;2023-12-07T15:12:32;10.70;45.70
5192;DHT22;2615;44.524;11.284;2023-12-07T15:15:01;10.60;45.90
5192;DHT22;2615;44.524;11.284;2023-12-07T15:17:32;10.50;46.00
5192;DHT22;2615;44.524;11.284;2023-12-07T15:20:01;10.40;46.10
5192;DHT22;2615;44.524;11.284;2023-12-07T15:22:32;10.30;46.10
5192;DHT22;2615;44.524;11.284;2023-12-07T15:25:00;10.20;46.20
5192;DHT22;2615;44.524;11.284;2023-12-07T15:27:31;10.10;46.30
5192;DHT22;2615;44.524;11.284;2023-12-07T15:29:59;10.00;46.40
5192;DHT22;2615;44.524;11.284;2023-12-07T15:32:28;9.90;47.40
5192;DHT22;2615;44.524;11.284;2023-12-07T15:34:56;9.80;47.40
5192;DHT22;2615;44.524;11.284;2023-12-07T15:37:24;9.70;47.50
5192;DHT22;2615;44.524;11.284;2023-12-07T15:39:54;9.60;47.60
5192;DHT22;2615;44.524;11.284;2023-12-07T15:42:22;9.50;47.70
5192;DHT22;2615;44.524;11.284;2023-12-07T15:44:50;9.30;47.20
5192;DHT22;2615;44.524;11.284;2023-12-07T15:47:18;9.30;47.80
5192;DHT22;2615;44.524;11.284;2023-12-07T15:49:46;9.20;47.90
5192;DHT22;2615;44.524;11.284;2023-12-07T15:52:15;9.10;48.00
5192;DHT22;2615;44.524;11.284;2023-12-07T15:54:43;9.00;48.10
5192;DHT22;2615;44.524;11.284;2023-12-07T15:57:12;8.90;48.20
5192;DHT22;2615;44.524;11.284;2023-12-07T15:59:41;8.80;48.30
5192;DHT22;2615;44.524;11.284;2023-12-07T16:02:10;8.70;48.50
5192;DHT22;2615;44.524;11.284;2023-12-07T16:04:39;8.60;48.60
5192;DHT22;2615;44.524;11.284;2023-12-07T16:07:07;8.60;48.80
5192;DHT22;2615;44.524;11.284;2023-12-07T16:09:38;8.50;48.80
5192;DHT22;2615;44.524;11.284;2023-12-07T16:12:08;8.50;48.90
5192;DHT22;2615;44.524;11.284;2023-12-07T16:14:38;8.40;49.00